Time;durP1;ratioP1;P1;durP2;ratioP2;P2;SDS_P1;SDS_P2;PMS_P1;PMS_P2;Temp;Humidity;BMP_temperature;BMP_pressure;BME280_temperature;BME280_humidity;BME280_pressure;Samples;Min_cycle;Max_cycle;Signal;HPM_P1;HPM_P2
2023/05/11 00:00:07;;;;;;;0.00;0.00;;;12.10;99.90;;;;;;5005578;28;20042;-66
2023/05/11 00:02:32;;;;;;;0.10;0.10;;;12.20;99.90;;;;;;5010264;28;20563;-66
2023/05/11 00:04:58;;;;;;;0.10;0.10;;;12.10;99.90;;;;;;5014787;28;20037;-66
2023/05/11 00:07:23;;;;;;;0.95;0.52;;;12.10;99.90;;;;;;4994028;28;20401;-66
2023/05/11 00:09:49;;;;;;;0.00;0.00;;;12.10;99.90;;;;;;5004244;28;20567;-66
2023/05/11 00:12:15;;;;;;;0.20;0.20;;;12.00;99.90;;;;;;4993446;28;20109;-67
2023/05/11 00:14:41;;;;;;;0.47;0.47;;;12.10;99.90;;;;;;4995938;28;20042;-66
2023/05/11 00:17:06;;;;;;;0.10;0.10;;;12.20;99.90;;;;;;4991970;28;20061;-66
2023/05/11 00:19:32;;;;;;;0.15;0.15;;;12.20;99.90;;;;;;4998846;28;20054;-66
2023/05/11 00:21:58;;;;;;;0.35;0.35;;;12.30;99.90;;;;;;4989746;28;20150;-66
2023/05/11 00:24:25;;;;;;;0.40;0.40;;;12.20;99.90;;;;;;5019157;28;20049;-66
2023/05/11 00:26:51;;;;;;;0.10;0.10;;;12.30;99.90;;;;;;4999703;28;20054;-66
2023/05/11 00:29:16;;;;;;;0.17;0.17;;;12.30;99.90;;;;;;5008214;28;20057;-66
2023/05/11 00:31:46;;;;;;;0.32;0.32;;;12.30;99.90;;;;;;5009388;28;20044;-66
2023/05/11 00:34:13;;;;;;;0.57;0.57;;;12.30;99.90;;;;;;4999248;28;20053;-66
2023/05/11 00:36:39;;;;;;;0.10;0.10;;;12.30;99.90;;;;;;5001797;28;20053;-66
2023/05/11 00:39:04;;;;;;;0.43;0.43;;;12.20;99.90;;;;;;4987263;28;20088;-66
2023/05/11 00:41:30;;;;;;;0.10;0.10;;;12.20;99.90;;;;;;5009359;28;20038;-66
2023/05/11 00:43:55;;;;;;;0.10;0.10;;;12.30;99.90;;;;;;5005623;28;20186;-66
2023/05/11 00:46:21;;;;;;;0.20;0.20;;;12.30;99.90;;;;;;5001736;28;20112;-66
2023/05/11 00:48:47;;;;;;;0.20;0.20;;;12.30;99.90;;;;;;5014548;28;20124;-66
2023/05/11 00:51:12;;;;;;;0.40;0.40;;;12.20;99.90;;;;;;5007201;28;20119;-66
2023/05/11 00:53:38;;;;;;;0.00;0.00;;;12.20;99.90;;;;;;5002913;28;20485;-66
2023/05/11 00:56:04;;;;;;;0.10;0.10;;;12.10;99.90;;;;;;4985675;28;20124;-66
2023/05/11 00:58:30;;;;;;;0.00;0.00;;;12.10;99.90;;;;;;4987224;28;20057;-66
2023/05/11 01:00:56;;;;;;;0.28;0.28;;;12.10;99.90;;;;;;4987401;28;20040;-66
2023/05/11 01:03:21;;;;;;;0.10;0.10;;;12.10;99.90;;;;;;4988249;28;20057;-67
2023/05/11 01:06:00;;;;;;;0.10;0.10;;;12.10;99.90;;;;;;4983300;28;20060;-66
2023/05/11 01:08:41;;;;;;;0.57;0.57;;;12.10;99.90;;;;;;5004327;28;20868;-66
2023/05/11 01:11:12;;;;;;;0.50;0.50;;;12.10;99.90;;;;;;5008037;28;20053;-67
2023/05/11 01:14:05;;;;;;;0.22;0.22;;;12.10;99.90;;;;;;5007511;28;20516;-66
2023/05/11 01:16:34;;;;;;;0.85;0.55;;;12.00;99.90;;;;;;4998963;28;20054;-66
2023/05/11 01:19:08;;;;;;;0.20;0.20;;;12.00;99.90;;;;;;5009651;28;20071;-66
2023/05/11 01:21:34;;;;;;;0.25;0.25;;;12.00;99.90;;;;;;5004179;28;20046;-66
2023/05/11 01:24:23;;;;;;;0.10;0.10;;;12.10;99.90;;;;;;4990911;28;20049;-66
2023/05/11 01:27:05;;;;;;;0.00;0.00;;;12.00;99.90;;;;;;4972945;28;20053;-66
2023/05/11 01:29:46;;;;;;;0.13;0.13;;;12.00;99.90;;;;;;5002847;28;20137;-66
2023/05/11 01:32:19;;;;;;;0.00;0.00;;;12.00;99.90;;;;;;5010710;28;20088;-66
2023/05/11 01:34:47;;;;;;;0.20;0.20;;;12.00;99.90;;;;;;5006653;28;20387;-66
2023/05/11 01:37:19;;;;;;;0.10;0.10;;;11.90;99.90;;;;;;5001187;28;20164;-66
2023/05/11 01:40:09;;;;;;;0.10;0.10;;;12.00;99.90;;;;;;4997907;28;20072;-66
2023/05/11 01:42:40;;;;;;;0.10;0.10;;;12.00;99.90;;;;;;5002930;28;20117;-67
2023/05/11 01:45:09;;;;;;;0.10;0.10;;;11.90;99.90;;;;;;5005864;28;20089;-67
2023/05/11 01:47:37;;;;;;;0.10;0.10;;;12.00;99.90;;;;;;5005132;28;20046;-67
2023/05/11 01:50:05;;;;;;;0.45;0.32;;;12.00;99.90;;;;;;4998046;28;20681;-67
2023/05/11 01:52:31;;;;;;;0.85;0.38;;;12.00;99.90;;;;;;5007852;28;20121;-67
2023/05/11 01:54:59;;;;;;;0.20;0.20;;;11.90;99.90;;;;;;4984098;28;20082;-67
2023/05/11 01:57:26;;;;;;;0.25;0.25;;;12.00;99.90;;;;;;5004768;28;20132;-66
2023/05/11 01:59:54;;;;;;;0.17;0.17;;;12.00;99.90;;;;;;4990120;28;20517;-66
2023/05/11 02:02:21;;;;;;;0.10;0.10;;;11.90;99.90;;;;;;5001193;28;20050;-67
2023/05/11 02:04:48;;;;;;;0.47;0.47;;;11.90;99.90;;;;;;5011882;28;20038;-67
2023/05/11 02:07:15;;;;;;;0.13;0.13;;;12.00;99.90;;;;;;5012254;28;20144;-67
2023/05/11 02:09:42;;;;;;;0.20;0.20;;;12.00;99.90;;;;;;4985897;28;20505;-66
2023/05/11 02:12:09;;;;;;;0.45;0.45;;;11.90;99.90;;;;;;5012504;28;20513;-67
2023/05/11 02:14:36;;;;;;;0.20;0.20;;;12.00;99.90;;;;;;5008941;28;20125;-67
2023/05/11 02:17:04;;;;;;;0.57;0.57;;;12.00;99.90;;;;;;5001220;28;20049;-66
2023/05/11 02:19:35;;;;;;;0.10;0.10;;;12.00;99.90;;;;;;5004179;28;20101;-67
2023/05/11 02:22:02;;;;;;;0.45;0.35;;;12.00;99.90;;;;;;5000824;28;20069;-67
2023/05/11 02:24:30;;;;;;;0.20;0.20;;;12.00;99.90;;;;;;5014027;28;20085;-67
2023/05/11 02:26:57;;;;;;;0.10;0.10;;;12.00;99.90;;;;;;5008622;28;20061;-66
2023/05/11 02:29:23;;;;;;;0.10;0.10;;;12.00;99.90;;;;;;5001698;28;20050;-67
2023/05/11 02:31:55;;;;;;;0.22;0.22;;;12.00;99.90;;;;;;4992757;28;20046;-66
2023/05/11 02:34:26;;;;;;;0.10;0.10;;;12.00;99.90;;;;;;5011653;28;20859;-67
2023/05/11 02:36:59;;;;;;;1.30;0.35;;;11.90;99.90;;;;;;5005303;28;20053;-67
2023/05/11 02:39:31;;;;;;;0.17;0.17;;;12.00;99.90;;;;;;5002366;28;20053;-67
2023/05/11 02:42:01;;;;;;;0.28;0.28;;;12.00;99.90;;;;;;5007887;28;20034;-67
2023/05/11 02:44:31;;;;;;;0.30;0.30;;;12.00;99.90;;;;;;5019938;28;20042;-67
2023/05/11 02:47:01;;;;;;;0.10;0.10;;;12.00;99.90;;;;;;4996981;28;20088;-67
2023/05/11 02:49:30;;;;;;;0.10;0.10;;;12.00;99.90;;;;;;5004262;28;20128;-67
2023/05/11 02:51:58;;;;;;;0.28;0.28;;;12.00;99.90;;;;;;5006882;28;20096;-67
2023/05/11 02:54:25;;;;;;;0.10;0.10;;;12.00;99.90;;;;;;5011619;28;20045;-67
2023/05/11 02:56:51;;;;;;;2.95;0.75;;;12.00;99.90;;;;;;4990914;28;20042;-67
2023/05/11 02:59:17;;;;;;;0.75;0.75;;;12.00;99.90;;;;;;5011899;28;20045;-67
2023/05/11 03:01:43;;;;;;;0.22;0.22;;;12.00;99.90;;;;;;5010219;28;20390;-67
2023/05/11 03:04:09;;;;;;;0.20;0.20;;;12.00;99.90;;;;;;4994418;28;20453;-67
2023/05/11 03:06:35;;;;;;;0.10;0.10;;;12.00;99.90;;;;;;5015175;28;20073;-67
2023/05/11 03:09:01;;;;;;;1.20;0.75;;;11.90;99.90;;;;;;5009211;28;20489;-67
2023/05/11 03:11:27;;;;;;;0.70;0.57;;;12.00;99.90;;;;;;5010482;28;20097;-67
2023/05/11 03:13:54;;;;;;;0.30;0.30;;;12.00;99.90;;;;;;5003614;28;20604;-67
2023/05/11 03:16:20;;;;;;;0.77;0.32;;;12.00;99.90;;;;;;4985631;28;20425;-67
2023/05/11 03:18:47;;;;;;;0.38;0.38;;;12.00;99.90;;;;;;4993191;28;20053;-67
2023/05/11 03:21:16;;;;;;;0.00;0.00;;;12.00;99.90;;;;;;5007431;28;20125;-67
2023/05/11 03:23:45;;;;;;;0.22;0.22;;;12.00;99.90;;;;;;4992351;28;20060;-67
2023/05/11 03:26:11;;;;;;;0.10;0.10;;;12.00;99.90;;;;;;5013913;28;20053;-67
2023/05/11 03:28:39;;;;;;;0.03;0.03;;;11.90;99.90;;;;;;4991026;28;20185;-67
2023/05/11 03:31:05;;;;;;;0.68;0.68;;;11.90;99.90;;;;;;4983429;28;20056;-68
2023/05/11 03:33:31;;;;;;;0.10;0.10;;;11.90;99.90;;;;;;5009168;28;20037;-67
2023/05/11 03:35:58;;;;;;;0.40;0.40;;;11.90;99.90;;;;;;5001318;28;20386;-67
2023/05/11 03:38:26;;;;;;;0.90;0.90;;;12.00;99.90;;;;;;5008126;28;20108;-67
2023/05/11 03:40:54;;;;;;;0.13;0.13;;;12.00;99.90;;;;;;4996858;28;20137;-67
2023/05/11 03:43:20;;;;;;;0.13;0.13;;;12.00;99.90;;;;;;4990030;28;20172;-67
2023/05/11 03:45:49;;;;;;;0.10;0.10;;;12.00;99.90;;;;;;5004143;28;20375;-67
2023/05/11 03:48:16;;;;;;;0.40;0.40;;;12.00;99.90;;;;;;4993921;28;20448;-68
2023/05/11 03:50:42;;;;;;;0.17;0.17;;;12.00;99.90;;;;;;4991557;28;20489;-67
2023/05/11 03:53:08;;;;;;;0.28;0.28;;;11.90;99.90;;;;;;4988859;28;20039;-68
2023/05/11 03:55:34;;;;;;;0.08;0.08;;;12.00;99.90;;;;;;5012370;28;20042;-68
2023/05/11 03:58:00;;;;;;;0.10;0.10;;;12.00;99.90;;;;;;5005736;28;20125;-68
2023/05/11 04:00:25;;;;;;;0.25;0.25;;;12.00;99.90;;;;;;5003671;28;20497;-68
2023/05/11 04:02:51;;;;;;;1.27;0.75;;;12.00;99.90;;;;;;4989127;28;20042;-68
2023/05/11 04:05:18;;;;;;;0.15;0.15;;;12.10;99.90;;;;;;4988257;28;20136;-68
2023/05/11 04:07:43;;;;;;;0.10;0.10;;;12.00;99.90;;;;;;5013949;28;20125;-67
2023/05/11 04:10:09;;;;;;;0.10;0.10;;;12.00;99.90;;;;;;5010016;28;20125;-68
2023/05/11 04:12:35;;;;;;;0.10;0.10;;;12.00;99.90;;;;;;5000854;28;20129;-68
2023/05/11 04:15:00;;;;;;;0.00;0.00;;;11.90;99.90;;;;;;5015839;28;20148;-68
2023/05/11 04:17:26;;;;;;;0.30;0.30;;;11.90;99.90;;;;;;5010741;28;20070;-68
2023/05/11 04:19:52;;;;;;;0.60;0.60;;;11.90;99.90;;;;;;5005558;28;20135;-68
2023/05/11 04:22:17;;;;;;;0.15;0.15;;;11.90;99.90;;;;;;5012312;28;20048;-68
2023/05/11 04:24:43;;;;;;;0.63;0.40;;;11.80;99.90;;;;;;5010027;28;20041;-68
2023/05/11 04:27:08;;;;;;;0.10;0.10;;;11.80;99.90;;;;;;5006033;28;20050;-68
2023/05/11 04:29:34;;;;;;;0.00;0.00;;;11.80;99.90;;;;;;5007437;28;20049;-68
2023/05/11 04:32:00;;;;;;;0.20;0.20;;;11.90;99.90;;;;;;5012740;28;20045;-68
2023/05/11 04:34:25;;;;;;;0.30;0.30;;;11.80;99.90;;;;;;5000980;28;20474;-67
2023/05/11 04:36:51;;;;;;;0.08;0.08;;;11.80;99.90;;;;;;5004127;28;20121;-68
2023/05/11 04:39:17;;;;;;;1.40;0.80;;;11.80;99.90;;;;;;5001203;28;20111;-68
2023/05/11 04:41:43;;;;;;;0.10;0.10;;;11.70;99.90;;;;;;4994869;28;20042;-68
2023/05/11 04:44:09;;;;;;;0.10;0.10;;;11.60;99.90;;;;;;5010493;28;20091;-68
2023/05/11 04:46:35;;;;;;;0.10;0.10;;;11.60;99.90;;;;;;4983854;28;20046;-68
2023/05/11 04:49:01;;;;;;;0.57;0.57;;;11.60;99.90;;;;;;4995839;28;20172;-68
2023/05/11 04:51:26;;;;;;;0.10;0.10;;;11.50;99.90;;;;;;5000153;28;20050;-68
2023/05/11 04:53:52;;;;;;;0.10;0.10;;;11.50;99.90;;;;;;5001264;28;20048;-68
2023/05/11 04:56:20;;;;;;;0.00;0.00;;;11.50;99.90;;;;;;5005115;28;20042;-68
2023/05/11 04:58:45;;;;;;;0.20;0.20;;;11.40;99.90;;;;;;4989093;28;20057;-68
2023/05/11 05:01:11;;;;;;;0.47;0.32;;;11.40;99.90;;;;;;4982863;28;20029;-68
2023/05/11 05:03:36;;;;;;;0.10;0.10;;;11.40;99.90;;;;;;5005648;28;20053;-68
2023/05/11 05:06:02;;;;;;;0.00;0.00;;;11.40;99.90;;;;;;4997993;28;20508;-68
2023/05/11 05:08:28;;;;;;;0.10;0.10;;;11.40;99.90;;;;;;5011737;28;20405;-68
2023/05/11 05:10:53;;;;;;;0.10;0.10;;;11.40;99.90;;;;;;5009199;28;20030;-68
2023/05/11 05:13:19;;;;;;;0.03;0.03;;;11.40;99.90;;;;;;4999794;28;20112;-68
2023/05/11 05:15:44;;;;;;;0.00;0.00;;;11.40;99.90;;;;;;4997434;28;20069;-68
2023/05/11 05:18:10;;;;;;;0.00;0.00;;;11.40;99.90;;;;;;5006466;28;20046;-68
2023/05/11 05:20:36;;;;;;;0.00;0.00;;;11.40;99.90;;;;;;5005835;28;20534;-68
2023/05/11 05:23:01;;;;;;;0.10;0.10;;;11.50;99.90;;;;;;5008165;28;20045;-68
2023/05/11 05:25:27;;;;;;;0.28;0.28;;;11.50;99.90;;;;;;4998471;28;20065;-68
2023/05/11 05:27:53;;;;;;;0.10;0.10;;;11.60;99.90;;;;;;5007108;28;20072;-68
2023/05/11 05:30:18;;;;;;;0.10;0.10;;;11.60;99.90;;;;;;4990111;28;20026;-68
2023/05/11 05:32:44;;;;;;;0.00;0.00;;;11.70;99.90;;;;;;5009101;28;20042;-68
2023/05/11 05:35:10;;;;;;;0.10;0.10;;;11.60;99.90;;;;;;4997222;28;20053;-68
2023/05/11 05:37:36;;;;;;;0.10;0.10;;;11.70;99.90;;;;;;5002742;28;20050;-68
2023/05/11 05:40:03;;;;;;;0.10;0.10;;;11.70;99.90;;;;;;4999286;28;20052;-68
2023/05/11 05:42:28;;;;;;;0.10;0.10;;;11.80;99.90;;;;;;5006691;28;20128;-68
2023/05/11 05:44:54;;;;;;;0.10;0.10;;;11.70;99.90;;;;;;4998834;28;20956;-68
2023/05/11 05:47:20;;;;;;;0.28;0.28;;;11.70;99.90;;;;;;5009191;28;20045;-69
2023/05/11 05:49:46;;;;;;;0.10;0.10;;;11.70;99.90;;;;;;5007637;28;20068;-69
2023/05/11 05:52:11;;;;;;;0.30;0.30;;;11.70;99.90;;;;;;4999307;28;20042;-68
2023/05/11 05:54:37;;;;;;;0.20;0.20;;;11.80;99.90;;;;;;5010477;28;20053;-68
2023/05/11 05:57:02;;;;;;;0.50;0.50;;;11.80;99.90;;;;;;4995449;28;20045;-68
2023/05/11 05:59:28;;;;;;;0.20;0.20;;;11.90;99.90;;;;;;4987723;28;20525;-68
2023/05/11 06:01:54;;;;;;;0.10;0.10;;;11.80;99.90;;;;;;4988880;28;20046;-69
2023/05/11 06:04:20;;;;;;;0.65;0.65;;;11.90;99.90;;;;;;5005586;28;20489;-68
2023/05/11 06:06:46;;;;;;;0.40;0.40;;;11.90;99.90;;;;;;5001285;28;20405;-68
2023/05/11 06:09:12;;;;;;;0.10;0.10;;;11.90;99.90;;;;;;5005215;28;20066;-69
2023/05/11 06:11:37;;;;;;;0.10;0.10;;;11.90;99.90;;;;;;4985735;28;20458;-68
2023/05/11 06:14:03;;;;;;;0.20;0.20;;;11.90;99.90;;;;;;4982207;28;20046;-68
2023/05/11 06:16:29;;;;;;;0.10;0.10;;;11.90;99.90;;;;;;4993842;28;20057;-68
2023/05/11 06:18:55;;;;;;;0.10;0.10;;;12.00;99.90;;;;;;5004505;28;20050;-68
2023/05/11 06:21:20;;;;;;;0.05;0.05;;;12.00;99.90;;;;;;4988369;28;20068;-68
2023/05/11 06:23:46;;;;;;;0.10;0.10;;;12.10;99.90;;;;;;5000776;28;20053;-68
2023/05/11 06:26:11;;;;;;;0.10;0.10;;;12.10;99.90;;;;;;5002676;28;20108;-68
2023/05/11 06:28:37;;;;;;;0.10;0.10;;;12.00;99.90;;;;;;5013463;28;20048;-69
2023/05/11 06:31:03;;;;;;;0.00;0.00;;;12.10;99.90;;;;;;5006383;28;20056;-68
2023/05/11 06:33:29;;;;;;;0.10;0.10;;;12.10;99.90;;;;;;5001362;28;20120;-69
2023/05/11 06:35:54;;;;;;;0.90;0.90;;;12.10;99.90;;;;;;5016329;28;20095;-68
2023/05/11 06:38:20;;;;;;;0.38;0.38;;;12.10;99.90;;;;;;5002997;28;20045;-69
2023/05/11 06:40:45;;;;;;;0.10;0.10;;;12.10;99.90;;;;;;5012311;28;20073;-68
2023/05/11 06:43:11;;;;;;;0.00;0.00;;;12.10;99.90;;;;;;5006119;28;20145;-68
2023/05/11 06:45:37;;;;;;;0.10;0.10;;;12.20;99.90;;;;;;5006480;28;20041;-68
2023/05/11 06:48:03;;;;;;;0.00;0.00;;;12.20;99.90;;;;;;4995786;28;20050;-68
2023/05/11 06:50:29;;;;;;;0.00;0.00;;;12.10;99.90;;;;;;5011984;28;20050;-68
2023/05/11 06:52:55;;;;;;;0.10;0.10;;;12.10;99.90;;;;;;5003210;28;20520;-68
2023/05/11 06:55:20;;;;;;;0.00;0.00;;;12.10;99.90;;;;;;5009636;28;20065;-68
2023/05/11 06:57:46;;;;;;;0.10;0.10;;;12.20;99.90;;;;;;5011255;28;20432;-68
2023/05/11 07:00:12;;;;;;;0.10;0.10;;;12.30;99.90;;;;;;5002322;28;20035;-68
2023/05/11 07:02:38;;;;;;;0.10;0.10;;;12.30;99.90;;;;;;5013568;28;20042;-68
2023/05/11 07:05:03;;;;;;;0.10;0.10;;;12.40;99.90;;;;;;4996327;28;20038;-68
2023/05/11 07:07:29;;;;;;;0.10;0.10;;;12.40;99.90;;;;;;5004483;28;20041;-68
2023/05/11 07:09:55;;;;;;;0.55;0.40;;;12.50;99.90;;;;;;5008824;28;20500;-67
2023/05/11 07:12:21;;;;;;;0.00;0.00;;;12.50;99.90;;;;;;4990451;28;20124;-68
2023/05/11 07:14:47;;;;;;;0.17;0.17;;;12.60;99.90;;;;;;5007101;28;20054;-68
2023/05/11 07:17:12;;;;;;;0.22;0.22;;;12.50;99.90;;;;;;4990385;28;20045;-68
2023/05/11 07:19:38;;;;;;;0.35;0.32;;;12.60;99.90;;;;;;5013532;28;20056;-68
2023/05/11 07:22:04;;;;;;;0.00;0.00;;;12.60;99.90;;;;;;5012337;28;20100;-68
2023/05/11 07:24:30;;;;;;;0.10;0.10;;;12.60;99.90;;;;;;5003465;28;20077;-68
2023/05/11 07:26:56;;;;;;;0.10;0.10;;;12.60;99.90;;;;;;5005540;28;20054;-68
2023/05/11 07:29:22;;;;;;;0.00;0.00;;;12.60;99.90;;;;;;5009391;28;20055;-68
2023/05/11 07:31:47;;;;;;;0.10;0.10;;;12.70;99.90;;;;;;5001348;28;20088;-68
2023/05/11 07:34:13;;;;;;;0.10;0.10;;;12.70;99.90;;;;;;5016332;28;20435;-68
2023/05/11 07:36:38;;;;;;;2.38;1.27;;;12.80;99.90;;;;;;5002957;28;20108;-68
2023/05/11 07:39:04;;;;;;;0.00;0.00;;;12.80;99.90;;;;;;4995473;28;20099;-68
2023/05/11 07:41:30;;;;;;;0.30;0.30;;;12.80;99.90;;;;;;4995159;28;20052;-67
2023/05/11 07:43:55;;;;;;;0.10;0.10;;;12.80;99.90;;;;;;5013728;28;20057;-68
2023/05/11 07:46:21;;;;;;;0.10;0.10;;;12.90;99.90;;;;;;5006019;28;20034;-68
2023/05/11 07:48:47;;;;;;;0.10;0.10;;;12.90;99.90;;;;;;5007554;28;20045;-67
2023/05/11 07:51:12;;;;;;;0.30;0.30;;;13.00;99.90;;;;;;5011007;28;20040;-68
2023/05/11 07:53:38;;;;;;;0.13;0.13;;;13.00;99.90;;;;;;4995360;28;20052;-67
2023/05/11 07:56:04;;;;;;;1.55;0.68;;;13.00;99.90;;;;;;4996812;28;20950;-68
2023/05/11 07:58:31;;;;;;;0.15;0.15;;;13.00;99.90;;;;;;5006589;28;20038;-68
2023/05/11 08:00:57;;;;;;;0.40;0.40;;;13.10;99.90;;;;;;5006375;28;20042;-68
2023/05/11 08:03:22;;;;;;;0.10;0.10;;;13.10;99.90;;;;;;5012043;28;20053;-68
2023/05/11 08:05:48;;;;;;;0.38;0.38;;;13.20;99.90;;;;;;5005125;28;20073;-67
2023/05/11 08:08:14;;;;;;;0.80;0.80;;;13.10;99.90;;;;;;5012478;28;20049;-68
2023/05/11 08:10:40;;;;;;;0.15;0.15;;;13.10;99.90;;;;;;5009581;28;20776;-67
2023/05/11 08:13:06;;;;;;;0.00;0.00;;;13.10;99.90;;;;;;5009040;28;20054;-68
2023/05/11 08:15:32;;;;;;;0.08;0.08;;;13.30;99.90;;;;;;5007514;28;20171;-68
2023/05/11 08:17:59;;;;;;;0.00;0.00;;;13.20;99.90;;;;;;5003615;28;20056;-68
2023/05/11 08:20:25;;;;;;;0.30;0.30;;;13.20;99.90;;;;;;5010546;28;20524;-67
2023/05/11 08:22:50;;;;;;;0.10;0.10;;;13.20;99.90;;;;;;4998850;28;20095;-67
2023/05/11 08:25:16;;;;;;;0.73;0.73;;;13.30;99.90;;;;;;4982433;28;20041;-68
2023/05/11 08:27:42;;;;;;;1.17;1.08;;;13.40;99.90;;;;;;5008682;28;20100;-68
2023/05/11 08:30:08;;;;;;;0.15;0.15;;;13.40;99.90;;;;;;5002407;28;20042;-68
2023/05/11 08:32:35;;;;;;;2.67;0.55;;;13.50;99.90;;;;;;5004686;28;20053;-68
2023/05/11 08:35:01;;;;;;;0.10;0.10;;;13.40;99.90;;;;;;4991783;28;20046;-68
2023/05/11 08:37:28;;;;;;;0.30;0.30;;;13.50;99.90;;;;;;5006420;28;20046;-68
2023/05/11 08:39:54;;;;;;;0.10;0.10;;;13.50;99.90;;;;;;5008556;28;20094;-67
2023/05/11 08:42:23;;;;;;;0.10;0.10;;;13.50;99.90;;;;;;4990020;28;20100;-68
2023/05/11 08:44:49;;;;;;;1.17;1.05;;;13.60;99.90;;;;;;5002595;28;20073;-68
2023/05/11 08:47:16;;;;;;;0.65;0.65;;;13.60;99.90;;;;;;5002987;28;20045;-68
2023/05/11 08:49:42;;;;;;;0.52;0.45;;;13.70;99.90;;;;;;5006947;28;20041;-68
2023/05/11 08:52:08;;;;;;;0.08;0.08;;;13.70;99.90;;;;;;5000143;28;20057;-68
2023/05/11 08:54:34;;;;;;;0.20;0.20;;;13.70;99.90;;;;;;5000711;28;20393;-68
2023/05/11 08:57:01;;;;;;;0.00;0.00;;;13.70;99.90;;;;;;5006012;28;20052;-68
2023/05/11 08:59:27;;;;;;;1.23;1.13;;;13.80;99.90;;;;;;5006093;28;20069;-68
2023/05/11 09:01:55;;;;;;;0.68;0.68;;;13.70;99.90;;;;;;5013980;28;20037;-68
2023/05/11 09:04:22;;;;;;;1.20;0.65;;;13.70;99.90;;;;;;5001330;28;20060;-68
2023/05/11 09:06:49;;;;;;;2.33;0.90;;;13.70;99.90;;;;;;4987430;28;20042;-68
2023/05/11 09:09:16;;;;;;;0.30;0.30;;;13.60;99.90;;;;;;5005178;28;20045;-68
2023/05/11 09:11:43;;;;;;;0.00;0.00;;;13.60;99.90;;;;;;4988035;28;20049;-68
2023/05/11 09:14:09;;;;;;;1.77;1.08;;;13.70;99.90;;;;;;5015013;28;20044;-68
2023/05/11 09:16:35;;;;;;;0.40;0.40;;;13.70;99.90;;;;;;4997295;28;20081;-67
2023/05/11 09:19:01;;;;;;;0.17;0.17;;;13.70;99.90;;;;;;5009005;28;20038;-68
2023/05/11 09:21:29;;;;;;;0.00;0.00;;;13.70;99.90;;;;;;5001226;28;20132;-67
2023/05/11 09:23:57;;;;;;;0.08;0.08;;;13.70;99.90;;;;;;5006968;28;20037;-68
2023/05/11 09:26:24;;;;;;;0.10;0.10;;;13.60;99.90;;;;;;5001820;28;20069;-68
2023/05/11 09:29:00;;;;;;;0.25;0.25;;;13.80;99.90;;;;;;5006883;28;20132;-67
2023/05/11 09:31:43;;;;;;;0.10;0.10;;;13.80;99.90;;;;;;5002500;28;20053;-67
2023/05/11 09:34:22;;;;;;;0.25;0.25;;;13.80;99.90;;;;;;4979963;28;20065;-68
2023/05/11 09:36:50;;;;;;;0.10;0.10;;;13.70;99.90;;;;;;4980782;28;20052;-67
2023/05/11 09:39:18;;;;;;;0.20;0.20;;;13.80;99.90;;;;;;4999072;28;20517;-67
2023/05/11 09:41:44;;;;;;;0.13;0.13;;;13.90;99.90;;;;;;4983025;28;20041;-67
2023/05/11 09:44:12;;;;;;;0.28;0.28;;;13.90;99.90;;;;;;4996323;28;20129;-67
2023/05/11 09:46:40;;;;;;;0.35;0.35;;;14.00;99.90;;;;;;5007786;28;20046;-67
2023/05/11 09:49:07;;;;;;;1.00;0.40;;;14.00;99.90;;;;;;5002654;28;20053;-65
2023/05/11 09:51:39;;;;;;;0.85;0.57;;;14.10;99.90;;;;;;5000098;28;20061;-65
2023/05/11 09:54:18;;;;;;;1.75;1.65;;;14.10;99.90;;;;;;5007603;28;20033;-65
2023/05/11 09:56:50;;;;;;;0.13;0.13;;;13.90;99.90;;;;;;4998570;28;20046;-65
2023/05/11 09:59:36;;;;;;;0.10;0.10;;;14.00;99.90;;;;;;4999744;28;20103;-65
2023/05/11 10:02:34;;;;;;;0.10;0.10;;;14.10;99.90;;;;;;4987404;28;20126;-65
2023/05/11 10:05:09;;;;;;;0.32;0.32;;;14.20;99.90;;;;;;4967115;28;20049;-65
2023/05/11 10:07:35;;;;;;;0.15;0.15;;;14.20;99.90;;;;;;5017255;28;20038;-65
2023/05/11 10:10:05;;;;;;;0.65;0.65;;;14.10;99.90;;;;;;5008676;28;20030;-65
2023/05/11 10:12:32;;;;;;;1.08;0.70;;;14.10;99.90;;;;;;5014320;28;20065;-66
2023/05/11 10:15:07;;;;;;;0.10;0.10;;;14.30;99.90;;;;;;4983257;28;20048;-66
2023/05/11 10:17:34;;;;;;;0.20;0.20;;;14.20;99.90;;;;;;5001006;28;20112;-66
2023/05/11 10:20:01;;;;;;;0.00;0.00;;;14.40;99.90;;;;;;5003298;28;20045;-64
2023/05/11 10:22:28;;;;;;;6.45;0.98;;;14.40;99.90;;;;;;5007585;28;20050;-65
2023/05/11 10:24:56;;;;;;;0.10;0.10;;;14.40;99.90;;;;;;5006094;28;20041;-66
2023/05/11 10:27:22;;;;;;;0.20;0.20;;;14.50;99.90;;;;;;5001597;28;20132;-65
2023/05/11 10:29:49;;;;;;;0.00;0.00;;;14.60;99.90;;;;;;5013608;28;20572;-65
2023/05/11 10:32:17;;;;;;;0.40;0.17;;;14.60;99.90;;;;;;4986681;28;20037;-65
2023/05/11 10:34:45;;;;;;;0.15;0.15;;;14.60;99.90;;;;;;5008934;28;20129;-66
2023/05/11 10:37:11;;;;;;;0.25;0.25;;;14.70;99.90;;;;;;5007685;28;20093;-66
2023/05/11 10:39:38;;;;;;;0.43;0.43;;;14.70;99.90;;;;;;5009799;28;20052;-66
2023/05/11 10:42:42;;;;;;;0.00;0.00;;;14.80;99.90;;;;;;4990418;28;20506;-66
2023/05/11 10:45:22;;;;;;;0.17;0.17;;;14.80;99.90;;;;;;5006593;28;20039;-66
2023/05/11 10:48:13;;;;;;;0.10;0.10;;;14.80;99.90;;;;;;5013492;28;20705;-66
2023/05/11 10:51:20;;;;;;;0.00;0.00;;;14.90;99.90;;;;;;5004854;28;20055;-66
2023/05/11 10:54:10;;;;;;;0.10;0.10;;;14.90;99.90;;;;;;4979599;28;20431;-66
2023/05/11 10:57:12;;;;;;;0.08;0.08;;;14.90;99.90;;;;;;5003830;28;20097;-66
2023/05/11 10:59:52;;;;;;;0.10;0.10;;;14.80;99.90;;;;;;4912553;29;20048;-67
2023/05/11 11:02:19;;;;;;;0.03;0.03;;;14.70;99.90;;;;;;4997001;28;20180;-66
2023/05/11 11:04:49;;;;;;;0.05;0.05;;;14.80;99.90;;;;;;5013020;28;20042;-67
2023/05/11 11:07:18;;;;;;;0.10;0.10;;;14.80;99.90;;;;;;5001406;28;20042;-66
2023/05/11 11:09:53;;;;;;;0.08;0.08;;;14.90;99.90;;;;;;5014327;28;20041;-67
2023/05/11 11:12:20;;;;;;;0.13;0.13;;;14.90;99.90;;;;;;5004960;28;20387;-67
2023/05/11 11:14:58;;;;;;;0.00;0.00;;;14.90;99.90;;;;;;5015665;28;20038;-67
2023/05/11 11:17:34;;;;;;;0.10;0.10;;;14.90;99.90;;;;;;5002994;28;20521;-67
2023/05/11 11:20:06;;;;;;;0.05;0.05;;;15.10;99.90;;;;;;5012180;28;20044;-67
2023/05/11 11:22:34;;;;;;;0.03;0.03;;;15.20;99.90;;;;;;5002325;28;20469;-66
2023/05/11 11:25:39;;;;;;;0.45;0.30;;;15.20;99.90;;;;;;5008538;28;20077;-67
2023/05/11 11:28:05;;;;;;;0.05;0.05;;;15.30;99.90;;;;;;4959687;28;20057;-67
2023/05/11 11:30:31;;;;;;;0.68;0.10;;;15.40;99.90;;;;;;5012876;28;20068;-67
2023/05/11 11:33:12;;;;;;;0.10;0.10;;;15.30;99.90;;;;;;4977322;28;20490;-66
2023/05/11 11:35:40;;;;;;;0.20;0.20;;;15.40;99.90;;;;;;4989847;28;20045;-67
2023/05/11 11:38:12;;;;;;;0.00;0.00;;;15.50;99.90;;;;;;5002126;28;20517;-67
2023/05/11 11:40:42;;;;;;;0.13;0.13;;;15.40;99.90;;;;;;4996057;28;20128;-67
2023/05/11 11:43:18;;;;;;;0.55;0.55;;;15.60;99.90;;;;;;5007996;28;20133;-66
2023/05/11 11:46:02;;;;;;;0.22;0.22;;;15.70;99.90;;;;;;5005246;28;20054;-67
2023/05/11 11:48:29;;;;;;;0.00;0.00;;;15.90;99.90;;;;;;5001582;28;20528;-67
2023/05/11 11:51:11;;;;;;;0.00;0.00;;;16.20;99.90;;;;;;5008904;28;20511;-67
2023/05/11 11:53:36;;;;;;;0.00;0.00;;;16.30;99.90;;;;;;5005844;28;20057;-67
2023/05/11 11:56:03;;;;;;;0.08;0.08;;;16.50;99.90;;;;;;5008766;28;20046;-67
2023/05/11 11:58:44;;;;;;;0.00;0.00;;;16.50;99.90;;;;;;5003556;28;20555;-67
2023/05/11 12:01:14;;;;;;;0.10;0.10;;;16.70;99.90;;;;;;5006347;28;20088;-67
2023/05/11 12:03:42;;;;;;;0.20;0.20;;;16.70;99.90;;;;;;5010528;28;20084;-67
2023/05/11 12:06:09;;;;;;;0.00;0.00;;;16.70;99.90;;;;;;5005047;28;20042;-67
2023/05/11 12:08:36;;;;;;;0.10;0.10;;;16.80;99.90;;;;;;4974028;28;20482;-67
2023/05/11 12:11:03;;;;;;;0.20;0.20;;;16.90;99.90;;;;;;4999254;28;20084;-66
2023/05/11 12:13:29;;;;;;;0.00;0.00;;;17.10;99.90;;;;;;5006760;28;20048;-66
2023/05/11 12:16:11;;;;;;;0.43;0.43;;;17.30;99.90;;;;;;4990890;28;20033;-65
2023/05/11 12:18:38;;;;;;;0.38;0.38;;;17.60;99.90;;;;;;5007148;28;20133;-65
2023/05/11 12:21:03;;;;;;;0.10;0.10;;;17.60;99.90;;;;;;5010277;28;20077;-65
2023/05/11 12:23:29;;;;;;;0.03;0.03;;;17.70;99.90;;;;;;5006826;28;20135;-65
2023/05/11 12:26:06;;;;;;;0.00;0.00;;;17.90;99.90;;;;;;5009921;28;20564;-65
2023/05/11 12:28:34;;;;;;;0.08;0.08;;;18.20;99.90;;;;;;5009374;28;20084;-65
2023/05/11 12:31:00;;;;;;;0.00;0.00;;;18.30;99.90;;;;;;4998118;28;20048;-66
2023/05/11 12:33:26;;;;;;;0.00;0.00;;;18.30;99.90;;;;;;5004093;28;20117;-66
2023/05/11 12:35:53;;;;;;;0.00;0.00;;;18.40;99.90;;;;;;5006807;28;20045;-66
2023/05/11 12:38:19;;;;;;;0.13;0.13;;;18.50;99.90;;;;;;4999207;28;20053;-66
2023/05/11 12:40:49;;;;;;;0.30;0.30;;;18.70;99.90;;;;;;5002113;28;20034;-66
2023/05/11 12:43:19;;;;;;;0.00;0.00;;;18.50;99.90;;;;;;5002812;28;20121;-66
2023/05/11 12:45:46;;;;;;;0.75;0.52;;;18.60;99.90;;;;;;5004282;28;20038;-66
2023/05/11 12:48:12;;;;;;;0.00;0.00;;;18.30;99.90;;;;;;5004219;28;20061;-66
2023/05/11 12:50:42;;;;;;;0.00;0.00;;;18.30;99.90;;;;;;5011306;28;20149;-66
2023/05/11 12:53:21;;;;;;;0.85;0.25;;;18.20;99.90;;;;;;4985904;28;20077;-66